Terminal Aerodrome Forecast
Issued by NWS

Current Version | Previous Version | Text Only | Print | Product List | Glossary On
Versions: 1 2 3 4 5 6 7 8 9 10 11 12 13 14 15 16 17 18 19 20 21 22 23 24
000
FTUS41 KBUF 180304 AAA
TAFJHW
TAF AMD
KJHW 180304Z 1803/1824 22006KT 2SM -SN OVC003
     FM181000 28012G18KT 2SM -SN BKN003
     FM181100 28011G19KT P6SM VCSH BKN007
     FM181400 28011KT P6SM SCT012
      AMD NOT SKED=

USA.gov is the U.S. government's official web portal to all federal, state and local government web resources and services.